Time;durP1;ratioP1;P1;durP2;ratioP2;P2;SDS_P1;SDS_P2;PMS_P1;PMS_P2;Temp;Humidity;BMP_temperature;BMP_pressure;BME280_temperature;BME280_humidity;BME280_pressure;Samples;Min_cycle;Max_cycle;Signal;HPM_P1;HPM_P2
2023/10/22 00:02:13;;;;;;;147.40;22.33;;;9.70;99.90;9.00;99498;;;;566795;249;24108;-80
2023/10/22 00:04:41;;;;;;;153.17;21.20;;;9.70;99.90;9.00;99503;;;;567554;249;24098;-77
2023/10/22 00:07:09;;;;;;;85.23;20.27;;;9.70;99.90;9.00;99502;;;;566925;249;24143;-78
2023/10/22 00:09:36;;;;;;;229.83;25.80;;;9.70;99.90;9.00;99504;;;;566730;249;24129;-81
2023/10/22 00:12:07;;;;;;;114.73;20.17;;;9.70;99.90;9.00;99501;;;;567808;248;24135;-79
2023/10/22 00:14:32;;;;;;;203.47;24.23;;;9.70;99.90;9.00;99508;;;;576903;248;24127;-77
2023/10/22 00:17:01;;;;;;;102.63;19.57;;;9.70;99.90;9.00;99498;;;;567753;248;24100;-76
2023/10/22 00:19:33;;;;;;;111.13;22.13;;;9.70;99.90;9.00;99497;;;;567709;248;24098;-79
2023/10/22 00:21:57;;;;;;;140.90;22.17;;;9.70;99.90;9.00;99492;;;;567312;248;25180;-76
2023/10/22 00:24:25;;;;;;;68.13;15.97;;;9.70;99.90;8.90;99484;;;;567497;248;24178;-77
2023/10/22 00:26:53;;;;;;;93.13;18.17;;;9.70;99.90;8.90;99479;;;;567287;248;24128;-76
2023/10/22 00:29:21;;;;;;;41.30;15.63;;;9.60;99.90;8.90;99485;;;;567530;249;24191;-78
2023/10/22 00:31:49;;;;;;;185.27;23.33;;;9.60;99.90;8.80;99486;;;;567197;249;24138;-77
2023/10/22 00:34:17;;;;;;;220.73;24.90;;;9.50;99.90;8.80;99498;;;;567309;249;24085;-76
2023/10/22 00:36:44;;;;;;;47.87;15.70;;;9.50;99.90;8.80;99491;;;;567087;249;24218;-80
2023/10/22 00:39:13;;;;;;;71.10;17.83;;;9.50;99.90;8.70;99491;;;;567831;249;24098;-77
2023/10/22 00:41:42;;;;;;;60.87;16.63;;;9.40;99.90;8.70;99491;;;;565505;249;24087;-76
2023/10/22 00:44:10;;;;;;;90.67;18.10;;;9.40;99.90;8.70;99488;;;;565583;249;24099;-83
2023/10/22 00:46:38;;;;;;;63.97;16.60;;;9.40;99.90;8.60;99484;;;;567802;249;24133;-76
2023/10/22 00:49:09;;;;;;;154.10;21.00;;;9.40;99.90;8.60;99492;;;;567963;249;24086;-82
2023/10/22 00:51:34;;;;;;;58.73;15.07;;;9.30;99.90;8.60;99482;;;;567605;249;24135;-79
2023/10/22 00:54:02;;;;;;;87.53;17.40;;;9.30;99.90;8.50;99483;;;;571104;245;24099;-75
2023/10/22 00:56:30;;;;;;;76.27;16.60;;;9.20;99.90;8.50;99487;;;;567495;249;24117;-76
2023/10/22 00:58:58;;;;;;;67.40;16.30;;;9.20;99.90;8.40;99487;;;;576339;248;24134;-76
2023/10/22 01:01:26;;;;;;;158.67;18.67;;;9.10;99.90;8.40;99480;;;;565197;249;24144;-78
2023/10/22 01:03:54;;;;;;;175.70;21.53;;;9.10;99.90;8.30;99480;;;;566159;249;24089;-76
2023/10/22 01:06:22;;;;;;;107.70;18.73;;;9.10;99.90;8.30;99478;;;;561512;249;24106;-75
2023/10/22 01:08:51;;;;;;;69.27;16.83;;;9.00;99.90;8.20;99481;;;;566111;248;24094;-78
2023/10/22 01:11:19;;;;;;;52.97;15.17;;;8.90;99.90;8.20;99486;;;;568026;249;24118;-79
2023/10/22 01:13:47;;;;;;;108.73;18.07;;;8.90;99.90;8.20;99486;;;;567082;247;24093;-80
2023/10/22 01:16:15;;;;;;;76.70;17.37;;;8.90;99.90;8.10;99494;;;;566906;249;24129;-80
2023/10/22 01:18:43;;;;;;;72.43;16.93;;;8.80;99.90;8.10;99498;;;;567029;249;25126;-79
2023/10/22 01:21:11;;;;;;;85.67;17.80;;;8.80;99.90;8.10;99494;;;;567109;249;24192;-76
2023/10/22 01:23:39;;;;;;;62.20;16.63;;;8.80;99.90;8.10;99490;;;;568464;248;24178;-75
2023/10/22 01:26:10;;;;;;;146.90;20.63;;;8.80;99.90;8.20;99490;;;;568343;248;24116;-75
2023/10/22 01:28:35;;;;;;;49.20;15.83;;;8.90;99.90;8.20;99484;;;;568084;248;24220;-75
2023/10/22 01:31:10;;;;;;;46.90;16.27;;;8.90;99.90;8.20;99479;;;;576888;246;24104;-76
2023/10/22 01:33:31;;;;;;;112.83;19.13;;;8.90;99.90;8.20;99478;;;;575848;248;24132;-78
2023/10/22 01:35:59;;;;;;;93.50;16.57;;;8.90;99.90;8.20;99484;;;;567614;248;24110;-78
2023/10/22 01:38:27;;;;;;;57.23;13.90;;;9.00;99.90;8.20;99486;;;;567193;248;24117;-78
2023/10/22 01:40:57;;;;;;;57.20;15.60;;;9.00;99.90;8.20;99492;;;;573795;248;24198;-78
2023/10/22 01:43:22;;;;;;;57.43;16.13;;;9.00;99.90;8.20;99492;;;;567211;249;24114;-76
2023/10/22 01:45:51;;;;;;;101.63;16.83;;;9.00;99.90;8.20;99496;;;;567664;249;24108;-77
2023/10/22 01:48:20;;;;;;;102.63;15.67;;;8.90;99.90;8.20;99507;;;;567579;249;24116;-77
2023/10/22 01:50:48;;;;;;;313.83;34.33;;;8.90;99.90;8.20;99499;;;;563158;249;35295;-76
2023/10/22 01:53:16;;;;;;;58.90;15.70;;;8.90;99.90;8.20;99497;;;;565265;249;24128;-78
2023/10/22 01:55:44;;;;;;;170.97;19.60;;;8.90;99.90;8.20;99490;;;;567410;249;24086;-81
2023/10/22 01:58:12;;;;;;;182.70;20.23;;;9.00;99.90;8.20;99494;;;;567779;249;24102;-79
2023/10/22 02:00:39;;;;;;;125.07;16.77;;;9.00;99.90;8.20;99495;;;;565262;249;24086;-76
2023/10/22 02:03:11;;;;;;;64.03;14.73;;;8.90;99.90;8.20;99487;;;;567324;249;24173;-76
2023/10/22 02:05:35;;;;;;;154.67;18.07;;;8.90;99.90;8.20;99492;;;;566889;249;24162;-81
2023/10/22 02:08:07;;;;;;;71.00;13.93;;;8.90;99.90;8.10;99502;;;;567099;249;24128;-82
2023/10/22 02:10:32;;;;;;;151.90;18.27;;;8.80;99.90;8.10;99498;;;;563746;249;24185;-79
2023/10/22 02:13:00;;;;;;;235.70;22.57;;;8.80;99.90;8.10;99497;;;;574407;248;24192;-78
2023/10/22 02:15:28;;;;;;;42.63;12.30;;;8.80;99.90;8.10;99490;;;;564622;249;24195;-76
2023/10/22 02:17:56;;;;;;;34.57;11.57;;;8.80;99.90;8.10;99492;;;;575857;246;24124;-78
2023/10/22 02:20:24;;;;;;;38.27;11.80;;;8.80;99.90;8.10;99489;;;;567050;249;24102;-78
2023/10/22 02:22:51;;;;;;;145.83;17.07;;;8.80;99.90;8.00;99485;;;;566745;249;24104;-77
2023/10/22 02:25:19;;;;;;;58.67;13.33;;;8.80;99.90;8.00;99485;;;;566497;249;24098;-74
2023/10/22 02:27:47;;;;;;;38.60;13.60;;;8.80;99.90;8.00;99479;;;;566972;249;24101;-79
2023/10/22 02:30:15;;;;;;;55.37;13.27;;;8.80;99.90;8.00;99473;;;;567014;249;24175;-76
2023/10/22 02:32:43;;;;;;;34.53;12.13;;;8.70;99.90;8.00;99471;;;;566746;249;24148;-77
2023/10/22 02:35:12;;;;;;;46.93;12.13;;;8.70;99.90;7.90;99476;;;;567478;248;24162;-78
2023/10/22 02:37:40;;;;;;;58.57;13.37;;;8.70;99.90;7.90;99482;;;;567883;248;24195;-75
2023/10/22 02:40:09;;;;;;;139.00;17.70;;;8.70;99.90;7.90;99481;;;;567626;248;24138;-78
2023/10/22 02:42:36;;;;;;;143.93;17.93;;;8.70;99.90;7.90;99466;;;;567819;248;24153;-76
2023/10/22 02:45:04;;;;;;;33.97;11.37;;;8.70;99.90;7.90;99467;;;;567254;248;24114;-81
2023/10/22 02:47:33;;;;;;;45.70;13.90;;;8.70;99.90;7.90;99469;;;;567615;247;24151;-82
2023/10/22 02:50:01;;;;;;;45.37;13.30;;;8.60;99.90;7.80;99468;;;;567511;248;24172;-75
2023/10/22 02:52:29;;;;;;;39.50;12.70;;;8.60;99.90;7.80;99474;;;;567088;249;24129;-76
2023/10/22 02:54:57;;;;;;;27.83;11.90;;;8.60;99.90;7.80;99477;;;;566790;249;24213;-75
2023/10/22 02:57:25;;;;;;;30.30;12.30;;;8.60;99.90;7.80;99484;;;;567153;249;24141;-76
2023/10/22 02:59:54;;;;;;;32.60;12.83;;;8.50;99.90;7.80;99473;;;;567290;249;24108;-76
2023/10/22 03:02:22;;;;;;;44.40;13.60;;;8.50;99.90;7.80;99484;;;;567195;249;24164;-75
2023/10/22 03:04:50;;;;;;;53.60;13.07;;;8.50;99.90;7.80;99487;;;;566923;249;24117;-77
2023/10/22 03:07:17;;;;;;;48.90;14.00;;;8.50;99.90;7.80;99476;;;;567122;249;24145;-75
2023/10/22 03:09:46;;;;;;;47.97;14.30;;;8.50;99.90;7.80;99469;;;;566836;249;24159;-82
2023/10/22 03:12:14;;;;;;;51.23;14.20;;;8.50;99.90;7.80;99474;;;;566581;249;24210;-82
2023/10/22 03:14:42;;;;;;;46.40;13.23;;;8.50;99.90;7.80;99469;;;;566765;249;24111;-75
2023/10/22 03:17:10;;;;;;;38.37;13.27;;;8.50;99.90;7.80;99471;;;;566623;249;24092;-74
2023/10/22 03:19:38;;;;;;;116.80;17.87;;;8.50;99.90;7.80;99470;;;;567303;247;24134;-75
2023/10/22 03:22:06;;;;;;;48.17;12.73;;;8.50;99.90;7.80;99461;;;;566557;249;24080;-76
2023/10/22 03:24:34;;;;;;;75.93;14.53;;;8.50;99.90;7.70;99471;;;;566458;249;24109;-77
2023/10/22 03:27:04;;;;;;;27.10;11.70;;;8.50;99.90;7.70;99471;;;;570280;245;24101;-76
2023/10/22 03:29:29;;;;;;;72.40;14.70;;;8.50;99.90;7.70;99472;;;;566859;249;24116;-77
2023/10/22 03:32:00;;;;;;;41.47;14.30;;;8.50;99.90;7.70;99478;;;;566844;249;24116;-76
2023/10/22 03:34:25;;;;;;;27.07;12.40;;;8.50;99.90;7.70;99490;;;;566497;249;24098;-76
2023/10/22 03:36:53;;;;;;;42.50;13.50;;;8.50;99.90;7.70;99484;;;;566937;249;24155;-77
2023/10/22 03:39:21;;;;;;;33.10;13.10;;;8.50;99.90;7.70;99484;;;;566600;249;24146;-76
2023/10/22 03:41:49;;;;;;;29.17;12.60;;;8.50;99.90;7.70;99481;;;;570470;248;24114;-76
2023/10/22 03:44:17;;;;;;;29.77;12.50;;;8.50;99.90;7.70;99479;;;;566681;249;24128;-78
2023/10/22 03:46:46;;;;;;;24.47;11.40;;;8.50;99.90;7.70;99477;;;;567314;248;24152;-78
2023/10/22 03:49:13;;;;;;;25.10;11.73;;;8.50;99.90;7.70;99477;;;;568053;248;24151;-77
2023/10/22 03:51:44;;;;;;;32.17;12.27;;;8.50;99.90;7.70;99475;;;;567544;248;24122;-79
2023/10/22 03:54:10;;;;;;;27.73;10.83;;;8.50;99.90;7.70;99486;;;;567078;248;24124;-80
2023/10/22 03:56:38;;;;;;;24.17;12.37;;;8.40;99.90;7.70;99491;;;;567193;248;24116;-79
2023/10/22 03:59:07;;;;;;;27.93;12.23;;;8.40;99.90;7.70;99493;;;;567510;248;24143;-78
2023/10/22 04:01:35;;;;;;;31.43;11.47;;;8.40;99.90;7.60;99490;;;;567850;248;24116;-78
2023/10/22 04:04:03;;;;;;;40.40;14.13;;;8.40;99.90;7.60;99499;;;;567914;249;24114;-75
2023/10/22 04:06:31;;;;;;;61.93;12.63;;;8.40;99.90;7.60;99496;;;;575816;247;24132;-78
2023/10/22 04:08:59;;;;;;;62.33;14.13;;;8.40;99.90;7.50;99503;;;;566985;249;24096;-77
2023/10/22 04:11:27;;;;;;;96.10;16.67;;;8.30;99.90;7.50;99501;;;;566784;249;24122;-76
2023/10/22 04:13:55;;;;;;;113.30;15.97;;;8.30;99.90;7.50;99493;;;;566906;249;24095;-77
2023/10/22 04:16:23;;;;;;;100.43;15.20;;;8.30;99.90;7.50;99499;;;;566833;249;24088;-75
2023/10/22 04:18:51;;;;;;;99.43;17.10;;;8.30;99.90;7.50;99505;;;;567027;249;24106;-77
2023/10/22 04:21:19;;;;;;;106.73;16.93;;;8.30;99.90;7.50;99498;;;;566848;249;24157;-83
2023/10/22 04:23:47;;;;;;;152.87;18.23;;;8.30;99.90;7.50;99490;;;;566594;249;25130;-75
2023/10/22 04:26:16;;;;;;;162.60;19.60;;;8.30;99.90;7.50;99506;;;;570287;249;24095;-75
2023/10/22 04:28:45;;;;;;;124.03;18.37;;;8.30;99.90;7.60;99514;;;;566996;249;24094;-74
2023/10/22 04:31:12;;;;;;;116.77;17.03;;;8.30;99.90;7.60;99505;;;;570563;249;24110;-82
2023/10/22 04:33:40;;;;;;;78.17;15.23;;;8.30;99.90;7.60;99509;;;;566934;249;24087;-76
2023/10/22 04:36:20;;;;;;;77.50;16.27;;;8.40;99.90;7.60;99512;;;;566540;249;24082;-75
2023/10/22 04:38:44;;;;;;;102.73;15.93;;;8.40;99.90;7.70;99506;;;;564843;249;24164;-82
2023/10/22 04:41:16;;;;;;;70.73;15.17;;;8.40;99.90;7.70;99512;;;;566484;249;24152;-76
2023/10/22 04:43:41;;;;;;;77.13;16.67;;;8.40;99.90;7.70;99517;;;;567127;246;24090;-82
2023/10/22 04:46:08;;;;;;;101.40;16.27;;;8.50;99.90;7.70;99515;;;;575450;249;24149;-79
2023/10/22 04:48:37;;;;;;;62.23;15.70;;;8.50;99.90;7.80;99519;;;;566723;249;24086;-82
2023/10/22 04:51:06;;;;;;;85.33;16.07;;;8.50;99.90;7.80;99521;;;;567137;249;25218;-79
2023/10/22 04:53:34;;;;;;;61.80;15.27;;;8.60;99.90;7.80;99511;;;;571300;249;24102;-77
2023/10/22 04:56:00;;;;;;;96.70;16.23;;;8.60;99.90;7.80;99511;;;;576054;249;24105;-77
2023/10/22 04:58:32;;;;;;;87.60;17.03;;;8.60;99.90;7.80;99506;;;;567958;249;24114;-76
2023/10/22 05:00:56;;;;;;;67.93;15.97;;;8.60;99.90;7.90;99517;;;;568707;248;24108;-75
2023/10/22 05:03:27;;;;;;;42.47;14.33;;;8.70;99.90;7.90;99513;;;;568440;249;24139;-75
2023/10/22 05:05:52;;;;;;;67.57;15.07;;;8.70;99.90;7.90;99517;;;;568215;249;24149;-77
2023/10/22 05:08:23;;;;;;;58.90;14.87;;;8.70;99.90;8.00;99509;;;;565447;249;26297;-78
2023/10/22 05:10:48;;;;;;;126.47;17.27;;;8.80;99.90;8.00;99509;;;;567874;249;24156;-76
2023/10/22 05:13:16;;;;;;;54.23;15.53;;;8.80;99.90;8.00;99507;;;;568094;249;24094;-75
2023/10/22 05:15:44;;;;;;;44.63;12.90;;;8.80;99.90;8.10;99507;;;;568125;249;24108;-81
2023/10/22 05:18:12;;;;;;;266.10;30.80;;;8.90;99.90;8.10;99510;;;;571537;248;35380;-76
2023/10/22 05:20:44;;;;;;;111.97;18.23;;;8.90;99.90;8.10;99515;;;;567810;249;24130;-81
2023/10/22 05:23:09;;;;;;;139.63;19.43;;;8.90;99.90;8.10;99518;;;;575185;248;24116;-83
2023/10/22 05:25:37;;;;;;;68.10;16.73;;;8.90;99.90;8.20;99511;;;;561863;249;24112;-77
2023/10/22 05:28:05;;;;;;;84.27;16.60;;;8.90;99.90;8.20;99515;;;;566060;249;24112;-75
2023/10/22 05:30:33;;;;;;;80.77;17.13;;;9.00;99.90;8.20;99511;;;;565676;248;24198;-74
2023/10/22 05:33:01;;;;;;;77.50;17.87;;;9.00;99.90;8.20;99523;;;;565593;249;24098;-76
2023/10/22 05:35:31;;;;;;;150.83;19.97;;;9.00;99.90;8.30;99521;;;;565569;249;24085;-82
2023/10/22 05:37:57;;;;;;;74.60;15.53;;;9.00;99.90;8.30;99514;;;;565282;249;24119;-83
2023/10/22 05:40:25;;;;;;;73.20;15.73;;;9.00;99.90;8.30;99515;;;;567100;248;24138;-82
2023/10/22 05:42:57;;;;;;;69.03;17.37;;;9.10;99.90;8.40;99509;;;;566709;249;24094;-79
2023/10/22 05:45:21;;;;;;;119.10;18.37;;;9.10;99.90;8.40;99519;;;;566300;249;24129;-77
2023/10/22 05:47:49;;;;;;;92.97;17.60;;;9.20;99.90;8.40;99519;;;;566755;249;24106;-77
2023/10/22 05:50:17;;;;;;;60.00;15.43;;;9.20;99.90;8.50;99525;;;;566490;249;24161;-76
2023/10/22 05:52:45;;;;;;;87.80;15.97;;;9.20;99.90;8.50;99522;;;;567191;249;24140;-76
2023/10/22 05:55:14;;;;;;;173.33;20.73;;;9.30;99.90;8.60;99524;;;;570526;248;24105;-76
2023/10/22 05:57:40;;;;;;;46.70;14.03;;;9.30;99.90;8.60;99522;;;;566497;249;24127;-81
2023/10/22 06:00:08;;;;;;;163.97;20.67;;;9.40;99.90;8.60;99524;;;;566997;249;24097;-77
2023/10/22 06:02:36;;;;;;;170.13;19.70;;;9.40;99.90;8.70;99518;;;;567340;248;24147;-80
2023/10/22 06:05:08;;;;;;;59.93;15.47;;;9.40;99.90;8.70;99521;;;;566920;249;24096;-78
2023/10/22 06:07:32;;;;;;;81.70;16.90;;;9.50;99.90;8.70;99520;;;;566453;249;24110;-81
2023/10/22 06:10:00;;;;;;;33.50;13.47;;;9.50;99.90;8.80;99517;;;;567408;248;24200;-78
2023/10/22 06:12:28;;;;;;;48.83;14.83;;;9.60;99.90;8.80;99508;;;;568213;248;24096;-81
2023/10/22 06:15:03;;;;;;;50.17;13.20;;;9.60;99.90;8.90;99505;;;;564313;248;24188;-78
2023/10/22 06:17:24;;;;;;;88.43;15.10;;;9.70;99.90;8.90;99507;;;;567402;248;24076;-80
2023/10/22 06:19:52;;;;;;;51.10;13.70;;;9.70;99.90;9.00;99512;;;;567511;248;25166;-80
2023/10/22 06:22:19;;;;;;;43.53;13.63;;;9.70;99.90;9.00;99509;;;;567517;248;25297;-84
2023/10/22 06:24:47;;;;;;;37.30;13.57;;;9.80;99.90;9.10;99509;;;;567444;248;24148;-83
2023/10/22 06:27:15;;;;;;;51.67;14.97;;;9.80;99.90;9.20;99507;;;;567946;249;24110;-76
2023/10/22 06:29:43;;;;;;;97.30;15.97;;;9.90;99.90;9.20;99510;;;;567230;249;25336;-76
2023/10/22 06:32:11;;;;;;;36.13;14.00;;;10.00;99.90;9.30;99508;;;;570347;249;24142;-78
2023/10/22 06:34:39;;;;;;;202.83;28.13;;;10.00;99.90;9.30;99517;;;;571571;248;35312;-83
2023/10/22 06:37:07;;;;;;;53.67;16.40;;;10.10;99.90;9.50;99521;;;;576356;248;24113;-77
2023/10/22 06:39:35;;;;;;;47.63;15.97;;;10.20;99.90;9.50;99518;;;;563586;249;24161;-80
2023/10/22 06:42:06;;;;;;;75.17;15.73;;;10.30;99.90;9.60;99522;;;;563821;249;24099;-80
2023/10/22 06:44:31;;;;;;;43.63;14.93;;;10.30;99.90;9.60;99519;;;;575983;248;24125;-78
2023/10/22 06:47:02;;;;;;;33.30;13.73;;;10.30;99.90;9.60;99525;;;;561299;249;24166;-84
2023/10/22 06:49:26;;;;;;;135.27;17.43;;;10.40;99.90;9.60;99525;;;;560913;249;24084;-84
2023/10/22 06:51:54;;;;;;;86.23;14.00;;;10.30;99.90;9.60;99518;;;;576182;248;24144;-84
2023/10/22 06:54:22;;;;;;;48.07;13.43;;;10.30;99.90;9.60;99520;;;;563942;249;24115;-79
2023/10/22 06:56:51;;;;;;;65.13;14.43;;;10.40;99.90;9.60;99531;;;;562997;249;24140;-83
2023/10/22 06:59:19;;;;;;;36.47;14.07;;;10.40;99.90;9.60;99536;;;;563016;249;24166;-83
2023/10/22 07:01:47;;;;;;;27.27;12.60;;;10.40;99.90;9.70;99526;;;;563118;249;24108;-83
2023/10/22 07:04:15;;;;;;;92.30;16.30;;;10.40;99.90;9.70;99534;;;;576037;247;24095;-80
2023/10/22 07:06:43;;;;;;;32.93;13.70;;;10.40;99.90;9.70;99542;;;;576047;247;24104;-81
2023/10/22 07:09:11;;;;;;;28.83;12.87;;;10.50;99.90;9.70;99540;;;;563105;249;24152;-77
2023/10/22 07:11:39;;;;;;;54.73;14.43;;;10.50;99.90;9.70;99555;;;;575629;246;24100;-76
2023/10/22 07:14:07;;;;;;;38.17;13.93;;;10.40;99.90;9.70;99542;;;;575468;247;24133;-77
2023/10/22 07:16:35;;;;;;;23.93;13.30;;;10.40;99.90;9.70;99545;;;;575680;247;24149;-77
2023/10/22 07:19:06;;;;;;;49.40;12.87;;;10.50;99.90;9.70;99546;;;;563185;249;24126;-76
2023/10/22 07:21:31;;;;;;;63.97;22.60;;;10.50;99.90;9.70;99551;;;;562772;248;35306;-77
2023/10/22 07:23:59;;;;;;;66.13;18.13;;;10.50;99.90;9.80;99554;;;;564168;248;24129;-79
2023/10/22 07:26:27;;;;;;;26.47;13.20;;;10.50;99.90;9.90;99553;;;;576600;242;24076;-84
2023/10/22 07:28:55;;;;;;;38.00;14.17;;;10.60;99.90;9.90;99562;;;;576439;248;24135;-83
2023/10/22 07:31:23;;;;;;;30.93;13.37;;;10.70;99.90;10.00;99552;;;;563611;248;24117;-76
2023/10/22 07:33:51;;;;;;;27.77;14.90;;;10.70;99.90;10.10;99552;;;;564399;248;24102;-80
2023/10/22 07:36:22;;;;;;;30.43;14.90;;;10.80;99.90;10.10;99551;;;;566907;248;24124;-82
2023/10/22 07:38:51;;;;;;;24.50;14.30;;;10.90;99.90;10.10;99553;;;;567454;249;24092;-79
2023/10/22 07:41:21;;;;;;;42.47;14.50;;;10.90;99.90;10.20;99563;;;;575842;246;24129;-78
2023/10/22 07:43:48;;;;;;;26.17;13.40;;;10.90;99.90;10.30;99562;;;;563089;249;24093;-76
2023/10/22 07:46:15;;;;;;;22.73;13.70;;;11.00;99.90;10.40;99564;;;;566972;249;24135;-75
2023/10/22 07:48:44;;;;;;;77.23;17.30;;;11.10;99.90;10.40;99564;;;;563328;249;24115;-79
2023/10/22 07:51:15;;;;;;;31.20;14.07;;;11.10;99.90;10.40;99561;;;;576079;247;24116;-77
2023/10/22 07:53:41;;;;;;;25.37;14.40;;;11.30;99.90;10.50;99564;;;;565214;249;24133;-80
2023/10/22 07:56:14;;;;;;;31.87;15.13;;;11.30;99.90;10.60;99572;;;;563134;249;24103;-82
2023/10/22 07:58:41;;;;;;;21.50;12.73;;;11.40;99.90;10.60;99553;;;;565001;248;24135;-80
2023/10/22 08:01:07;;;;;;;20.43;13.10;;;11.40;99.90;10.70;99560;;;;566761;249;24171;-77
2023/10/22 08:03:35;;;;;;;15.70;12.07;;;11.40;99.90;10.80;99548;;;;567066;249;24096;-76
2023/10/22 08:06:04;;;;;;;21.03;12.10;;;11.70;99.90;10.90;99553;;;;563268;249;24132;-76
2023/10/22 08:08:32;;;;;;;20.60;13.53;;;11.60;99.90;11.10;99551;;;;567396;247;24208;-76
2023/10/22 08:11:00;;;;;;;20.83;13.57;;;11.80;99.90;11.20;99550;;;;575595;247;24082;-78
2023/10/22 08:13:27;;;;;;;19.57;13.43;;;12.00;99.90;11.40;99551;;;;576062;243;24171;-78
2023/10/22 08:15:56;;;;;;;20.60;14.17;;;12.10;99.90;11.60;99543;;;;563073;249;24105;-81
2023/10/22 08:18:24;;;;;;;21.57;13.77;;;12.60;99.90;11.70;99554;;;;566951;249;24123;-79
2023/10/22 08:20:52;;;;;;;22.53;15.47;;;12.50;99.90;12.00;99547;;;;567207;249;24100;-80
2023/10/22 08:23:20;;;;;;;20.53;16.00;;;12.80;99.90;12.10;99540;;;;575648;245;24089;-80
2023/10/22 08:25:52;;;;;;;27.63;17.47;;;13.10;99.90;12.30;99541;;;;562841;249;25115;-77
2023/10/22 08:28:19;;;;;;;27.63;18.60;;;13.10;99.90;12.50;99543;;;;576140;247;24155;-76
2023/10/22 08:30:50;;;;;;;25.30;21.50;;;13.50;99.90;12.60;99550;;;;557949;249;35333;-77
2023/10/22 08:33:18;;;;;;;31.13;21.00;;;13.50;99.90;12.80;99553;;;;576998;242;24079;-76
2023/10/22 08:35:48;;;;;;;29.17;20.17;;;13.60;99.90;12.90;99550;;;;577495;246;24098;-77
2023/10/22 08:38:17;;;;;;;24.17;17.93;;;13.80;99.90;13.10;99574;;;;564612;248;24136;-76
2023/10/22 08:40:43;;;;;;;25.57;17.93;;;13.80;99.90;12.90;99567;;;;568662;248;24164;-79
2023/10/22 08:43:17;;;;;;;23.03;14.27;;;13.60;99.90;12.70;99563;;;;576437;247;24104;-77
2023/10/22 08:45:51;;;;;;;17.70;13.07;;;13.60;99.90;12.90;99567;;;;567842;248;24104;-78
2023/10/22 08:48:18;;;;;;;17.77;13.90;;;13.70;99.90;12.70;99571;;;;566313;249;24100;-78
2023/10/22 08:50:49;;;;;;;20.93;16.27;;;13.60;99.90;12.90;99571;;;;574829;248;24100;-81
2023/10/22 08:53:17;;;;;;;20.73;15.47;;;13.70;99.90;12.80;99569;;;;565580;249;24093;-82
2023/10/22 08:55:48;;;;;;;21.53;15.37;;;13.60;99.90;12.90;99564;;;;576578;246;24122;-81
2023/10/22 08:58:16;;;;;;;24.57;16.70;;;13.70;99.90;13.00;99573;;;;567244;249;23228;-78
2023/10/22 09:00:52;;;;;;;21.60;16.17;;;13.80;99.90;13.00;99573;;;;575977;246;24121;-79
2023/10/22 09:03:24;;;;;;;24.27;16.10;;;13.80;99.90;12.90;99569;;;;563055;249;24095;-80
2023/10/22 09:05:49;;;;;;;20.50;15.37;;;13.70;99.90;12.90;99569;;;;575437;248;24159;-77
2023/10/22 09:08:17;;;;;;;24.27;16.97;;;13.70;99.90;12.90;99569;;;;567398;249;24089;-77
2023/10/22 09:10:45;;;;;;;23.63;16.30;;;13.80;99.90;13.00;99566;;;;576021;247;24154;-77
2023/10/22 09:13:22;;;;;;;24.93;14.87;;;13.80;99.90;13.10;99553;;;;567104;249;24113;-79
2023/10/22 09:15:47;;;;;;;18.73;15.53;;;13.90;99.90;13.20;99554;;;;567322;249;24093;-81
2023/10/22 09:18:14;;;;;;;19.23;14.20;;;14.00;99.90;13.20;99560;;;;566752;249;24158;-83
2023/10/22 09:20:46;;;;;;;20.80;16.57;;;14.00;99.90;13.20;99557;;;;575566;247;24078;-80
2023/10/22 09:23:21;;;;;;;19.83;15.27;;;14.10;99.90;13.30;99562;;;;567245;249;24094;-78
2023/10/22 09:25:51;;;;;;;20.90;15.77;;;14.10;99.90;13.40;99546;;;;567430;249;24101;-81
2023/10/22 09:28:21;;;;;;;24.50;16.47;;;14.20;99.90;13.70;99547;;;;565041;249;24110;-78
2023/10/22 09:30:56;;;;;;;22.17;15.47;;;14.40;99.90;13.70;99539;;;;566984;249;24100;-80
2023/10/22 09:33:34;;;;;;;21.97;15.40;;;14.50;99.90;13.80;99535;;;;575471;248;24114;-78
2023/10/22 09:36:05;;;;;;;22.27;17.30;;;14.70;99.90;13.90;99528;;;;575657;246;24104;-78
2023/10/22 09:38:47;;;;;;;25.10;17.80;;;14.80;99.90;14.10;99530;;;;565551;247;24098;-81
2023/10/22 09:41:31;;;;;;;25.80;17.60;;;14.80;99.90;14.20;99536;;;;567534;249;24137;-81
2023/10/22 09:43:59;;;;;;;26.13;20.67;;;14.90;99.90;14.30;99533;;;;567581;246;24148;-81
2023/10/22 09:46:23;;;;;;;27.70;20.90;;;15.10;99.90;14.40;99534;;;;567958;248;24085;-80
2023/10/22 09:48:51;;;;;;;23.63;18.57;;;15.20;99.90;14.50;99526;;;;566101;248;24095;-79
2023/10/22 09:51:22;;;;;;;29.83;24.75;;;15.30;99.90;14.70;99528;;;;561672;248;35364;-83
2023/10/22 09:53:53;;;;;;;28.20;22.67;;;15.50;99.90;14.90;99517;;;;567538;248;24124;-77
2023/10/22 09:56:24;;;;;;;27.93;21.27;;;15.70;99.90;15.10;99519;;;;576056;246;24152;-78
2023/10/22 09:58:49;;;;;;;33.70;23.73;;;15.90;99.90;15.30;99516;;;;565467;248;24097;-81
2023/10/22 10:01:16;;;;;;;35.60;23.60;;;16.10;99.90;15.50;99518;;;;576194;246;24111;-80
2023/10/22 10:03:44;;;;;;;32.67;24.37;;;16.30;99.90;15.70;99513;;;;567152;249;24105;-79
2023/10/22 10:06:16;;;;;;;34.03;24.67;;;16.50;99.90;15.90;99515;;;;565847;249;24161;-80
2023/10/22 10:08:44;;;;;;;39.67;27.00;;;16.70;99.90;16.10;99504;;;;567493;249;24126;-81
2023/10/22 10:11:15;;;;;;;32.27;25.27;;;16.80;99.90;16.10;99509;;;;565332;249;24135;-84
2023/10/22 10:13:40;;;;;;;36.23;24.67;;;16.90;99.90;16.20;99503;;;;565382;249;24295;-77
2023/10/22 10:16:07;;;;;;;32.97;24.17;;;17.10;99.90;16.30;99507;;;;576018;248;24214;-78
2023/10/22 10:19:10;;;;;;;36.83;24.90;;;17.10;99.90;16.30;99501;;;;567519;249;24112;-77
2023/10/22 10:21:39;;;;;;;38.17;25.60;;;17.10;99.90;16.40;99498;;;;571496;245;24101;-78
2023/10/22 10:24:16;;;;;;;29.53;25.53;;;17.10;99.90;16.40;99497;;;;568629;249;35315;-80
2023/10/22 10:26:43;;;;;;;30.07;23.23;;;17.10;99.90;16.30;99489;;;;567556;246;24085;-78
2023/10/22 10:29:15;;;;;;;31.10;22.70;;;17.10;99.90;16.30;99490;;;;575971;242;24108;-83
2023/10/22 10:31:45;;;;;;;28.77;22.10;;;17.00;99.90;16.40;99492;;;;576718;248;24137;-79
2023/10/22 10:34:39;;;;;;;30.97;22.43;;;17.10;99.90;16.40;99489;;;;568141;249;24137;-80
2023/10/22 10:37:16;;;;;;;31.93;22.47;;;17.10;99.90;16.50;99484;;;;563539;249;23146;-80
2023/10/22 10:39:53;;;;;;;28.60;21.00;;;17.20;99.90;16.70;99482;;;;574842;249;24152;-81
2023/10/22 10:42:30;;;;;;;30.97;22.70;;;17.30;99.90;16.80;99487;;;;562767;251;24081;-79
2023/10/22 10:44:58;;;;;;;35.00;23.10;;;17.50;99.90;16.90;99484;;;;575568;249;24067;-78
2023/10/22 10:47:33;;;;;;;29.73;20.97;;;17.70;99.90;17.10;99477;;;;567948;249;25314;-78
2023/10/22 10:50:10;;;;;;;28.30;21.43;;;17.80;99.90;17.10;99474;;;;568035;248;23115;-79
2023/10/22 10:52:39;;;;;;;27.93;22.23;;;17.80;99.90;17.10;99468;;;;567440;249;24081;-77
2023/10/22 10:55:10;;;;;;;28.13;21.77;;;17.80;99.90;17.10;99471;;;;567589;249;24172;-77
2023/10/22 10:57:40;;;;;;;29.57;21.00;;;17.80;99.90;17.10;99469;;;;566724;247;24095;-78
2023/10/22 11:00:06;;;;;;;26.07;19.20;;;17.70;99.90;16.90;99462;;;;568302;245;24086;-77
2023/10/22 11:02:46;;;;;;;27.50;20.33;;;17.70;99.90;17.00;99470;;;;568023;248;24080;-82
2023/10/22 11:05:14;;;;;;;29.30;20.13;;;17.70;99.90;17.10;99470;;;;576584;248;24108;-83
2023/10/22 11:07:41;;;;;;;26.73;20.43;;;17.80;99.90;17.20;99468;;;;567509;248;24100;-78
2023/10/22 11:10:14;;;;;;;26.43;19.70;;;17.80;99.90;17.20;99472;;;;576337;247;24219;-82
2023/10/22 11:12:40;;;;;;;26.17;20.30;;;17.90;99.90;17.30;99473;;;;567678;248;24085;-80
2023/10/22 11:15:13;;;;;;;27.87;19.67;;;18.00;99.90;17.30;99466;;;;576419;247;24094;-81
2023/10/22 11:17:41;;;;;;;23.60;19.43;;;18.00;99.90;17.40;99465;;;;567497;249;23161;-83